createdAt,value
2018-12-31T00:01:08.799Z,2.67
2018-12-31T00:03:36.185Z,3.67
2018-12-31T00:06:03.566Z,3.20
2018-12-31T00:08:31.033Z,2.80
2018-12-31T00:10:58.439Z,2.40
2018-12-31T00:13:25.839Z,3.10
2018-12-31T00:15:53.390Z,2.30
2018-12-31T00:18:21.217Z,3.07
2018-12-31T00:20:48.607Z,2.60
2018-12-31T00:23:16.107Z,2.50
2018-12-31T00:25:43.504Z,2.27
2018-12-31T00:28:10.904Z,3.70
2018-12-31T00:30:38.559Z,2.50
2018-12-31T00:33:05.944Z,2.00
2018-12-31T00:35:33.327Z,2.20
2018-12-31T00:38:00.759Z,2.60
2018-12-31T00:40:28.172Z,2.17
2018-12-31T00:42:59.197Z,1.80
2018-12-31T00:45:24.787Z,1.80
2018-12-31T00:47:52.157Z,2.73
2018-12-31T00:50:19.535Z,3.07
2018-12-31T00:52:47.046Z,3.57
2018-12-31T00:55:14.443Z,2.40
2018-12-31T00:57:41.828Z,2.87
2018-12-31T01:00:09.441Z,4.27
2018-12-31T01:02:36.739Z,2.53
2018-12-31T01:05:04.162Z,1.37
2018-12-31T01:07:31.718Z,1.80
2018-12-31T01:09:59.131Z,1.33
2018-12-31T01:12:26.550Z,1.20
2018-12-31T01:14:54.018Z,1.00
2018-12-31T01:17:21.475Z,1.20
2018-12-31T01:19:49.335Z,1.10
2018-12-31T01:22:16.763Z,0.90
2018-12-31T01:24:44.151Z,0.93
2018-12-31T01:27:11.556Z,1.10
2018-12-31T01:29:38.989Z,1.37
2018-12-31T01:32:06.376Z,1.30
2018-12-31T01:34:33.766Z,0.90
2018-12-31T01:37:01.210Z,1.50
2018-12-31T01:39:28.606Z,1.10
2018-12-31T01:41:56.012Z,1.30
2018-12-31T01:44:23.438Z,0.80
2018-12-31T01:46:50.834Z,0.63
2018-12-31T01:49:18.215Z,1.30
2018-12-31T01:51:45.755Z,0.93
2018-12-31T01:54:13.151Z,0.77
2018-12-31T01:56:40.539Z,0.70
2018-12-31T01:59:08.327Z,0.63
2018-12-31T02:01:35.709Z,0.80
2018-12-31T02:04:03.102Z,0.60
2018-12-31T02:06:30.894Z,0.73
2018-12-31T02:08:58.266Z,0.60
2018-12-31T02:11:25.650Z,0.67
2018-12-31T02:13:53.078Z,0.70
2018-12-31T02:16:20.570Z,0.70
2018-12-31T02:18:48.420Z,0.70
2018-12-31T02:21:15.883Z,0.60
2018-12-31T02:23:43.266Z,0.70
2018-12-31T02:26:10.661Z,0.70
2018-12-31T02:28:38.101Z,0.60
2018-12-31T02:31:05.997Z,0.70
2018-12-31T02:33:33.373Z,0.70
2018-12-31T02:36:20.287Z,0.73
2018-12-31T02:38:47.946Z,0.70
2018-12-31T02:41:15.341Z,0.90
2018-12-31T02:43:44.283Z,1.40
2018-12-31T02:46:12.020Z,1.13
2018-12-31T02:48:39.427Z,2.10
2018-12-31T02:51:07.122Z,1.40
2018-12-31T02:53:34.510Z,1.20
2018-12-31T02:56:01.908Z,1.77
2018-12-31T02:58:29.518Z,1.90
2018-12-31T03:00:56.902Z,3.30
2018-12-31T03:03:24.294Z,3.30
2018-12-31T03:05:51.729Z,3.70
2018-12-31T03:08:19.111Z,4.27
2018-12-31T03:10:46.501Z,3.30
2018-12-31T03:13:13.898Z,2.90
2018-12-31T03:15:41.286Z,2.60
2018-12-31T03:18:08.678Z,2.40
2018-12-31T03:20:36.770Z,2.60
2018-12-31T03:23:04.151Z,3.00
2018-12-31T03:25:31.533Z,3.03
2018-12-31T03:27:58.963Z,2.47
2018-12-31T03:30:26.356Z,4.07
2018-12-31T03:32:53.745Z,4.60
2018-12-31T03:35:21.467Z,2.87
2018-12-31T03:37:50.282Z,3.07
2018-12-31T03:40:17.678Z,3.03
2018-12-31T03:42:45.060Z,3.80
2018-12-31T03:45:12.583Z,3.73
2018-12-31T03:47:39.980Z,2.70
2018-12-31T03:50:07.415Z,2.77
2018-12-31T03:52:34.905Z,3.10
2018-12-31T03:55:02.275Z,3.07
2018-12-31T03:57:29.663Z,2.40
2018-12-31T03:59:57.125Z,3.13
2018-12-31T04:02:24.519Z,3.00
2018-12-31T04:04:51.795Z,2.77
2018-12-31T04:07:19.678Z,2.67
2018-12-31T04:09:47.079Z,2.90
2018-12-31T04:12:14.485Z,2.90
2018-12-31T04:14:41.904Z,3.40
2018-12-31T04:17:09.303Z,2.50
2018-12-31T04:19:36.675Z,2.60
2018-12-31T04:22:04.201Z,3.20
2018-12-31T04:24:31.580Z,3.13
2018-12-31T04:26:58.974Z,3.27
2018-12-31T04:29:26.652Z,3.20
2018-12-31T04:31:54.052Z,3.27
2018-12-31T04:34:21.443Z,3.77
2018-12-31T04:36:48.879Z,2.90
2018-12-31T04:39:16.706Z,3.07
2018-12-31T04:41:44.099Z,4.07
2018-12-31T04:44:11.563Z,3.40
2018-12-31T04:46:38.942Z,3.20
2018-12-31T04:49:06.362Z,4.00
2018-12-31T04:51:34.102Z,3.00
2018-12-31T04:54:01.494Z,4.53
2018-12-31T04:56:28.893Z,4.67
2018-12-31T04:58:56.587Z,5.80
2018-12-31T05:01:23.966Z,4.47
2018-12-31T05:03:51.370Z,6.20
2018-12-31T05:06:18.896Z,5.90
2018-12-31T05:08:46.290Z,6.80
2018-12-31T05:11:13.694Z,6.10
2018-12-31T05:13:41.103Z,7.30
2018-12-31T05:16:08.485Z,6.40
2018-12-31T05:18:35.881Z,6.37
2018-12-31T05:21:03.400Z,5.20
2018-12-31T05:23:30.795Z,5.30
2018-12-31T05:25:58.163Z,5.80
2018-12-31T05:28:25.596Z,5.20
2018-12-31T05:30:52.971Z,6.97
2018-12-31T05:33:20.364Z,5.40
2018-12-31T05:35:47.875Z,5.97
2018-12-31T05:38:15.754Z,6.70
2018-12-31T05:40:43.140Z,6.40
2018-12-31T05:43:10.551Z,6.70
2018-12-31T05:45:37.979Z,6.50
2018-12-31T05:48:05.359Z,7.20
2018-12-31T05:50:32.743Z,10.00
2018-12-31T05:53:00.272Z,6.83
2018-12-31T05:55:27.659Z,5.70
2018-12-31T05:57:55.057Z,6.13
2018-12-31T06:00:22.539Z,5.87
2018-12-31T06:02:49.956Z,6.43
2018-12-31T06:05:17.348Z,6.10
2018-12-31T06:07:45.123Z,7.20
2018-12-31T06:10:12.511Z,5.73
2018-12-31T06:12:39.902Z,5.90
2018-12-31T06:15:07.413Z,5.50
2018-12-31T06:17:34.811Z,5.70
2018-12-31T06:20:02.202Z,5.70
2018-12-31T06:22:29.798Z,6.70
2018-12-31T06:24:57.187Z,5.83
2018-12-31T06:27:24.578Z,5.47
2018-12-31T06:29:52.073Z,7.60
2018-12-31T06:32:19.455Z,6.20
2018-12-31T06:34:46.843Z,7.63
2018-12-31T06:37:14.271Z,7.63
2018-12-31T06:39:43.051Z,8.37
2018-12-31T06:42:10.427Z,8.87
2018-12-31T06:44:37.823Z,7.57
2018-12-31T06:47:05.327Z,6.00
2018-12-31T06:49:32.726Z,6.13
2018-12-31T06:52:00.213Z,5.97
2018-12-31T06:54:27.651Z,6.47
2018-12-31T06:56:55.035Z,6.67
2018-12-31T06:59:22.436Z,6.17
2018-12-31T07:01:49.884Z,7.57
2018-12-31T07:04:17.267Z,7.80
2018-12-31T07:06:44.681Z,8.83
2018-12-31T07:09:12.142Z,5.47
2018-12-31T07:11:39.531Z,6.80
2018-12-31T07:14:06.932Z,6.13
2018-12-31T07:16:34.374Z,7.47
2018-12-31T07:19:01.771Z,7.90
2018-12-31T07:21:29.157Z,6.53
2018-12-31T07:23:56.616Z,6.27
2018-12-31T07:26:24.008Z,7.70
2018-12-31T07:28:51.399Z,7.30
2018-12-31T07:31:18.859Z,6.00
2018-12-31T07:33:46.248Z,5.80
2018-12-31T07:36:13.638Z,5.63
2018-12-31T07:38:41.056Z,5.80
2018-12-31T07:41:08.558Z,8.70
2018-12-31T07:43:35.973Z,7.43
2018-12-31T07:46:03.439Z,7.97
2018-12-31T07:48:30.853Z,9.13
2018-12-31T07:50:58.222Z,7.60
2018-12-31T07:53:25.816Z,8.77
2018-12-31T07:55:53.199Z,7.13
2018-12-31T07:58:20.579Z,8.23
2018-12-31T08:00:48.079Z,7.67
2018-12-31T08:03:15.478Z,8.57
2018-12-31T08:05:42.877Z,7.70
2018-12-31T08:08:10.347Z,8.90
2018-12-31T08:10:37.754Z,7.70
2018-12-31T08:13:05.158Z,10.13
2018-12-31T08:15:32.814Z,11.07
2018-12-31T08:18:00.206Z,10.23
2018-12-31T08:20:27.601Z,10.27
2018-12-31T08:22:55.034Z,11.50
2018-12-31T08:25:22.439Z,11.00
2018-12-31T08:27:49.856Z,11.60
2018-12-31T08:30:18.898Z,10.33
2018-12-31T08:32:46.427Z,10.00
2018-12-31T08:35:13.811Z,12.77
2018-12-31T08:37:41.235Z,11.60
2018-12-31T08:40:08.763Z,9.60
2018-12-31T08:42:36.516Z,9.20
2018-12-31T08:45:04.533Z,11.03
2018-12-31T08:47:31.939Z,12.00
2018-12-31T08:50:01.897Z,12.30
2018-12-31T08:52:28.884Z,12.43
2018-12-31T08:54:56.291Z,12.50
2018-12-31T08:57:23.675Z,12.53
2018-12-31T08:59:51.107Z,11.00
2018-12-31T09:02:18.521Z,10.10
2018-12-31T09:04:45.916Z,10.80
2018-12-31T09:07:13.763Z,9.83
2018-12-31T09:09:41.151Z,12.37
2018-12-31T09:12:08.558Z,13.60
2018-12-31T09:14:36.195Z,11.30
2018-12-31T09:17:03.621Z,10.30
2018-12-31T09:19:31.027Z,10.93
2018-12-31T09:21:58.947Z,11.10
2018-12-31T09:24:26.332Z,10.43
2018-12-31T09:26:53.747Z,10.50
2018-12-31T09:29:21.163Z,13.77
2018-12-31T09:31:48.558Z,15.30
2018-12-31T09:34:15.950Z,13.80
2018-12-31T09:36:43.399Z,15.97
2018-12-31T09:39:10.917Z,14.63
2018-12-31T09:41:38.955Z,13.87
2018-12-31T09:44:06.494Z,15.07
2018-12-31T09:46:33.883Z,15.70
2018-12-31T09:49:01.265Z,14.30
2018-12-31T09:51:28.707Z,17.17
2018-12-31T09:53:56.099Z,17.70
2018-12-31T09:56:23.499Z,18.40
2018-12-31T09:58:50.942Z,16.20
2018-12-31T10:01:18.327Z,13.80
2018-12-31T10:03:47.552Z,12.87
2018-12-31T10:06:15.219Z,15.33
2018-12-31T10:08:49.201Z,14.97
2018-12-31T10:11:11.859Z,12.67
2018-12-31T10:13:39.367Z,12.70
2018-12-31T10:16:06.781Z,14.17
2018-12-31T10:18:34.348Z,17.07
2018-12-31T10:21:01.771Z,13.03
2018-12-31T10:23:29.317Z,14.30
2018-12-31T10:25:56.896Z,13.43
2018-12-31T10:28:24.512Z,16.03
2018-12-31T10:30:52.067Z,16.77
2018-12-31T10:33:19.644Z,15.40
2018-12-31T10:35:47.325Z,14.20
2018-12-31T10:38:15.033Z,12.97
2018-12-31T10:40:42.883Z,12.73
2018-12-31T10:43:10.667Z,15.90
2018-12-31T10:45:38.264Z,19.17
2018-12-31T10:48:05.787Z,17.80
2018-12-31T10:50:33.531Z,26.63
2018-12-31T10:53:01.045Z,21.03
2018-12-31T10:55:28.542Z,22.10
2018-12-31T10:57:56.368Z,14.13
2018-12-31T11:00:23.987Z,12.90
2018-12-31T11:02:51.550Z,13.80
2018-12-31T11:05:19.188Z,14.00
2018-12-31T11:07:46.579Z,10.70
2018-12-31T11:10:14.144Z,12.13
2018-12-31T11:12:42.089Z,9.90
2018-12-31T11:15:09.643Z,12.53
2018-12-31T11:17:37.150Z,12.30
2018-12-31T11:20:04.844Z,17.10
2018-12-31T11:22:32.364Z,16.17
2018-12-31T11:24:59.892Z,14.57
2018-12-31T11:27:27.782Z,11.90
2018-12-31T11:29:55.304Z,11.77
2018-12-31T11:32:22.877Z,13.23
2018-12-31T11:34:50.539Z,13.80
2018-12-31T11:37:18.077Z,13.97
2018-12-31T11:39:45.749Z,15.63
2018-12-31T11:42:13.867Z,15.77
2018-12-31T11:44:41.384Z,12.90
2018-12-31T11:47:08.905Z,10.03
2018-12-31T11:49:36.689Z,11.43
2018-12-31T11:52:04.212Z,11.40
2018-12-31T11:54:31.649Z,9.83
2018-12-31T11:56:59.430Z,11.13
2018-12-31T11:59:26.945Z,11.23
2018-12-31T12:01:55.666Z,12.30
2018-12-31T12:04:23.392Z,14.43
2018-12-31T12:06:50.962Z,20.73
2018-12-31T12:09:18.482Z,18.20
2018-12-31T12:11:46.006Z,17.67
2018-12-31T12:14:13.579Z,12.97
2018-12-31T12:16:41.077Z,15.13
2018-12-31T12:19:08.938Z,15.67
2018-12-31T12:21:36.443Z,18.40
2018-12-31T12:24:03.977Z,18.07
2018-12-31T12:26:31.404Z,20.97
2018-12-31T12:28:58.894Z,19.20
2018-12-31T12:31:26.491Z,15.03
2018-12-31T12:33:54.086Z,20.43
2018-12-31T12:36:21.646Z,20.70
2018-12-31T12:38:49.149Z,17.77
2018-12-31T12:41:16.597Z,14.50
2018-12-31T12:43:44.174Z,21.33
2018-12-31T12:46:11.837Z,19.80
2018-12-31T12:48:39.597Z,15.17
2018-12-31T12:51:06.996Z,17.60
2018-12-31T12:53:34.395Z,20.33
2018-12-31T12:56:02.139Z,19.70
2018-12-31T12:58:29.559Z,18.37
2018-12-31T13:00:56.958Z,16.07
2018-12-31T13:03:24.824Z,15.80
2018-12-31T13:05:52.237Z,14.80
2018-12-31T13:08:19.626Z,14.90
2018-12-31T13:10:47.077Z,17.70
2018-12-31T13:13:14.772Z,15.73
2018-12-31T13:15:42.166Z,16.10
2018-12-31T13:18:09.744Z,17.33
2018-12-31T13:20:37.134Z,15.67
2018-12-31T13:23:04.534Z,15.30
2018-12-31T13:25:31.982Z,19.30
2018-12-31T13:27:59.362Z,19.70
2018-12-31T13:30:26.744Z,18.60
2018-12-31T13:32:54.300Z,14.57
2018-12-31T13:35:21.710Z,12.40
2018-12-31T13:37:49.095Z,12.13
2018-12-31T13:40:16.702Z,18.00
2018-12-31T13:42:44.415Z,15.60
2018-12-31T13:45:11.800Z,17.50
2018-12-31T13:47:39.375Z,14.00
2018-12-31T13:50:06.763Z,15.60
2018-12-31T13:52:34.146Z,13.20
2018-12-31T13:55:02.091Z,15.33
2018-12-31T13:57:29.479Z,28.80
2018-12-31T13:59:56.869Z,19.03
2018-12-31T14:02:24.680Z,21.50
2018-12-31T14:04:52.074Z,22.53
2018-12-31T14:07:19.470Z,18.93
2018-12-31T14:09:47.179Z,22.00
2018-12-31T14:12:14.571Z,25.40
2018-12-31T14:14:41.954Z,20.17
2018-12-31T14:17:09.673Z,18.73
2018-12-31T14:19:37.051Z,20.77
2018-12-31T14:22:04.651Z,16.67
2018-12-31T14:24:32.123Z,25.97
2018-12-31T14:27:00.703Z,21.60
2018-12-31T14:29:28.310Z,20.00
2018-12-31T14:31:56.086Z,19.87
2018-12-31T14:34:23.460Z,27.20
2018-12-31T14:36:50.869Z,24.60
2018-12-31T14:39:18.287Z,24.43
2018-12-31T14:41:45.876Z,22.20
2018-12-31T14:44:13.739Z,19.77
2018-12-31T14:46:41.357Z,19.93
2018-12-31T14:49:08.959Z,20.37
2018-12-31T14:51:36.339Z,19.60
2018-12-31T14:54:03.809Z,22.50
2018-12-31T14:56:31.207Z,22.70
2018-12-31T14:58:58.598Z,21.13
2018-12-31T15:01:26.652Z,23.30
2018-12-31T15:03:54.391Z,24.47
2018-12-31T15:06:21.795Z,24.10
2018-12-31T15:08:49.547Z,23.57
2018-12-31T15:11:16.945Z,26.33
2018-12-31T15:13:44.323Z,21.90
2018-12-31T15:16:12.446Z,18.93
2018-12-31T15:18:39.846Z,20.30
2018-12-31T15:21:07.236Z,20.23
2018-12-31T15:23:34.691Z,22.70
2018-12-31T15:26:02.099Z,25.40
2018-12-31T15:28:29.503Z,22.20
2018-12-31T15:30:56.924Z,23.67
2018-12-31T15:33:24.308Z,27.47
2018-12-31T15:35:51.707Z,22.03
2018-12-31T15:38:19.147Z,22.90
2018-12-31T15:40:46.981Z,25.07
2018-12-31T15:43:14.876Z,22.37
2018-12-31T15:45:42.299Z,27.93
2018-12-31T15:48:09.695Z,27.73
2018-12-31T15:50:37.071Z,30.63
2018-12-31T15:53:04.619Z,27.90
2018-12-31T15:55:32.098Z,20.20
2018-12-31T15:57:59.899Z,24.63
2018-12-31T16:00:27.359Z,25.87
2018-12-31T16:02:54.759Z,24.57
2018-12-31T16:05:22.137Z,32.70
2018-12-31T16:07:50.084Z,22.80
2018-12-31T16:10:30.216Z,25.20
2018-12-31T16:12:58.024Z,25.43
2018-12-31T16:15:25.380Z,28.10
2018-12-31T16:17:52.778Z,30.53
2018-12-31T16:20:20.198Z,24.73
2018-12-31T16:22:47.583Z,29.90
2018-12-31T16:25:14.965Z,30.67
2018-12-31T16:27:42.662Z,35.87
2018-12-31T16:30:10.941Z,35.50
2018-12-31T16:32:38.335Z,37.40
2018-12-31T16:35:06.067Z,36.47
2018-12-31T16:37:33.963Z,32.13
2018-12-31T16:40:01.347Z,27.63
2018-12-31T16:42:29.171Z,26.23
2018-12-31T16:44:56.950Z,25.70
2018-12-31T16:47:24.339Z,20.77
2018-12-31T16:49:53.018Z,19.23
2018-12-31T16:52:20.410Z,23.27
2018-12-31T16:54:47.831Z,27.57
2018-12-31T16:57:15.347Z,33.20
2018-12-31T16:59:42.742Z,27.70
2018-12-31T17:02:10.150Z,23.20
2018-12-31T17:04:37.599Z,28.03
2018-12-31T17:07:04.997Z,30.63
2018-12-31T17:09:32.381Z,31.47
2018-12-31T17:11:59.918Z,27.70
2018-12-31T17:14:27.304Z,26.47
2018-12-31T17:16:54.699Z,27.10
2018-12-31T17:19:22.334Z,23.40
2018-12-31T17:21:49.735Z,27.73
2018-12-31T17:24:17.123Z,23.47
2018-12-31T17:26:44.563Z,24.70
2018-12-31T17:29:11.948Z,21.80
2018-12-31T17:31:39.330Z,24.33
2018-12-31T17:34:07.423Z,33.47
2018-12-31T17:36:34.819Z,33.30
2018-12-31T17:39:02.530Z,26.23
2018-12-31T17:41:29.963Z,28.10
2018-12-31T17:43:57.607Z,34.73
2018-12-31T17:46:34.081Z,28.33
2018-12-31T17:49:01.452Z,25.30
2018-12-31T17:51:28.844Z,25.57
2018-12-31T17:53:56.947Z,41.77
2018-12-31T17:56:24.339Z,31.40
2018-12-31T17:58:51.723Z,28.13
2018-12-31T18:01:19.787Z,28.30
2018-12-31T18:03:47.097Z,25.30
2018-12-31T18:06:14.507Z,21.73
2018-12-31T18:08:41.990Z,32.67
2018-12-31T18:11:09.371Z,33.87
2018-12-31T18:13:36.758Z,24.83
2018-12-31T18:16:04.301Z,26.70
2018-12-31T18:18:31.685Z,22.77
2018-12-31T18:20:59.083Z,21.67
2018-12-31T18:23:26.648Z,24.73
2018-12-31T18:25:54.041Z,25.00
2018-12-31T18:28:21.826Z,35.10
2018-12-31T18:30:49.153Z,29.70
2018-12-31T18:33:16.562Z,33.23
2018-12-31T18:35:43.940Z,32.23
2018-12-31T18:38:11.445Z,28.20
2018-12-31T18:40:38.897Z,25.93
2018-12-31T18:43:06.823Z,29.50
2018-12-31T18:45:34.744Z,35.37
2018-12-31T18:48:02.132Z,26.77
2018-12-31T18:50:29.617Z,25.70
2018-12-31T18:52:57.367Z,32.97
2018-12-31T18:55:24.753Z,28.60
2018-12-31T18:57:52.132Z,24.60
2018-12-31T19:00:19.599Z,28.60
2018-12-31T19:02:46.982Z,27.67
2018-12-31T19:05:14.366Z,32.20
2018-12-31T19:07:41.841Z,29.63
2018-12-31T19:10:09.237Z,25.07
2018-12-31T19:12:36.639Z,27.47
2018-12-31T19:15:04.120Z,31.53
2018-12-31T19:17:31.519Z,28.53
2018-12-31T19:19:58.894Z,26.80
2018-12-31T19:22:26.433Z,32.03
2018-12-31T19:24:53.842Z,32.20
2018-12-31T19:27:21.236Z,27.43
2018-12-31T19:29:48.737Z,39.07
2018-12-31T19:32:16.126Z,33.23
2018-12-31T19:34:43.522Z,31.77
2018-12-31T19:37:10.958Z,29.37
2018-12-31T19:39:38.628Z,28.10
2018-12-31T19:42:06.144Z,35.37
2018-12-31T19:44:33.975Z,40.93
2018-12-31T19:47:01.352Z,37.13
2018-12-31T19:49:28.751Z,40.27
2018-12-31T19:51:56.558Z,36.20
2018-12-31T19:54:24.355Z,35.83
2018-12-31T19:56:51.740Z,44.90
2018-12-31T19:59:19.236Z,35.70
2018-12-31T20:01:46.538Z,36.00
2018-12-31T20:04:13.934Z,31.57
2018-12-31T20:06:41.383Z,37.77
2018-12-31T20:09:08.970Z,30.90
2018-12-31T20:11:36.331Z,32.10
2018-12-31T20:14:03.862Z,90.40
2018-12-31T20:16:31.256Z,45.50
2018-12-31T20:18:58.651Z,33.83
2018-12-31T20:21:26.110Z,31.77
2018-12-31T20:23:53.595Z,26.50
2018-12-31T20:26:20.979Z,166.80
2018-12-31T20:28:48.419Z,202.90
2018-12-31T20:31:15.795Z,65.27
2018-12-31T20:33:43.268Z,35.90
2018-12-31T20:36:10.742Z,31.97
2018-12-31T20:38:38.526Z,28.87
2018-12-31T20:41:05.894Z,26.93
2018-12-31T20:43:33.571Z,28.07
2018-12-31T20:46:01.365Z,23.67
2018-12-31T20:48:28.750Z,23.83
2018-12-31T20:50:56.274Z,21.77
2018-12-31T20:53:23.671Z,29.40
2018-12-31T20:55:50.958Z,22.53
2018-12-31T20:58:18.443Z,28.40
2018-12-31T21:00:45.836Z,27.97
2018-12-31T21:03:13.227Z,29.47
2018-12-31T21:05:40.651Z,23.60
2018-12-31T21:08:08.031Z,23.23
2018-12-31T21:10:35.422Z,22.23
2018-12-31T21:13:03.350Z,24.53
2018-12-31T21:15:30.763Z,28.67
2018-12-31T21:17:58.147Z,25.10
2018-12-31T21:20:25.701Z,23.53
2018-12-31T21:22:53.084Z,22.93
2018-12-31T21:25:20.459Z,25.00
2018-12-31T21:27:47.957Z,21.63
2018-12-31T21:30:15.356Z,20.73
2018-12-31T21:32:42.731Z,19.90
2018-12-31T21:35:10.159Z,25.90
2018-12-31T21:37:37.544Z,22.57
2018-12-31T21:40:07.163Z,22.27
2018-12-31T21:42:34.646Z,22.30
2018-12-31T21:45:02.326Z,19.40
2018-12-31T21:47:29.712Z,20.90
2018-12-31T21:49:57.414Z,22.83
2018-12-31T21:52:25.244Z,24.33
2018-12-31T21:54:52.637Z,23.00
2018-12-31T21:57:20.084Z,16.77
2018-12-31T21:59:47.475Z,17.90
2018-12-31T22:02:14.859Z,18.03
2018-12-31T22:04:42.280Z,27.80
2018-12-31T22:07:09.966Z,23.40
2018-12-31T22:09:37.338Z,26.60
2018-12-31T22:12:04.978Z,21.60
2018-12-31T22:14:32.387Z,24.30
2018-12-31T22:16:59.763Z,21.80
2018-12-31T22:19:27.235Z,26.10
2018-12-31T22:21:55.019Z,19.97
2018-12-31T22:24:22.403Z,25.60
2018-12-31T22:26:51.653Z,21.77
2018-12-31T22:29:19.142Z,25.90
2018-12-31T22:31:46.530Z,26.10
2018-12-31T22:34:13.979Z,28.30
2018-12-31T22:36:41.373Z,22.33
2018-12-31T22:39:08.758Z,23.80
2018-12-31T22:41:36.198Z,20.53
2018-12-31T22:44:03.735Z,23.67
2018-12-31T22:46:31.248Z,28.20
2018-12-31T22:48:58.770Z,21.77
2018-12-31T22:51:26.178Z,19.00
2018-12-31T22:53:53.461Z,17.90
2018-12-31T22:56:20.988Z,25.73
2018-12-31T22:58:48.365Z,24.03
2018-12-31T23:01:15.769Z,20.33
2018-12-31T23:03:43.925Z,24.83
2018-12-31T23:06:11.323Z,54.67
2018-12-31T23:08:38.692Z,47.87
2018-12-31T23:11:06.507Z,39.07
2018-12-31T23:13:36.902Z,59.40
2018-12-31T23:16:04.330Z,38.40
2018-12-31T23:18:38.820Z,24.33
2018-12-31T23:21:09.781Z,24.17
2018-12-31T23:23:37.144Z,35.43
2018-12-31T23:26:04.551Z,26.93
2018-12-31T23:28:31.941Z,32.27
2018-12-31T23:30:59.340Z,45.23
2018-12-31T23:33:26.807Z,34.70
2018-12-31T23:35:54.186Z,28.50
2018-12-31T23:38:21.580Z,25.13
2018-12-31T23:40:49.095Z,24.10
2018-12-31T23:43:16.757Z,20.37
2018-12-31T23:45:44.756Z,21.53
2018-12-31T23:48:12.204Z,20.27
2018-12-31T23:50:39.587Z,27.57
2018-12-31T23:53:06.983Z,41.60
2018-12-31T23:55:34.419Z,32.83
2018-12-31T23:58:02.526Z,41.70
